B Gas Crusader — 9HTH8 — position and weather

sailwx.info

Track history (hours):
 
Tides and Currents Weather Stations Pressure Air Temp Water Temp Dewpoint Dewpoint Depression Visibility Wind Speed Wind Dir Waves Ship Positions

B Gas Crusader

Last reported at 2018-Apr-15 04:13 UTC. Time now 2018-Apr-19 19:23 UTC.
Position N 40°58' E 001°38'.

Length 74 m; draft 4.5 m.

Type: Ship (hazmat cat C). MMSI: 256400000.

Date/timePositionNaut miles runAvg speedWind from/ knotsBaromVisibWave heightAir tempDewpointWater temp
2018-Apr-15 04:13N 40°58' E 001°38'310.6
2018-Apr-15 03:54N 40°57' E 001°42'348 9.9
2018-Apr-13 16:48N 38°47' E 008°42'410.7
2018-Apr-13 16:24N 38°47' E 008°48'710.3
2018-Apr-13 15:44N 38°50' E 008°56'310.3
2018-Apr-13 15:30N 38°51' E 008°58'510.2
2018-Apr-13 14:59N 38°55' E 009°02'510.2
2018-Apr-13 14:30N 38°59' E 009°06'510.1
2018-Apr-13 14:00N 39°04' E 009°07'4 8.0
2018-Apr-13 13:30N 39°06' E 009°02'0 0.2
2018-Apr-13 13:00N 39°06' E 009°02'0 0.0
2018-Apr-13 12:30N 39°06' E 009°02'0 0.0
2018-Apr-13 12:00N 39°06' E 009°02'0 0.0
2018-Apr-13 11:30N 39°06' E 009°02'0 0.0
2018-Apr-13 10:57N 39°06' E 009°02'0 0.0
2018-Apr-13 10:27N 39°06' E 009°02'0 0.0
2018-Apr-13 09:57N 39°06' E 009°02'0 0.0
2018-Apr-13 09:27N 39°06' E 009°02'0 0.0
2018-Apr-13 09:00N 39°06' E 009°02'0 0.1
2018-Apr-13 08:28N 39°06' E 009°02'1 1.1
2018-Apr-13 07:57N 39°06' E 009°01'0 0.0
2018-Apr-13 07:27N 39°06' E 009°01'0 0.0
2018-Apr-13 06:57N 39°06' E 009°01'0 0.0
2018-Apr-13 06:27N 39°06' E 009°01'0 0.0
2018-Apr-13 05:57N 39°06' E 009°01'0 0.0
2018-Apr-13 05:27N 39°06' E 009°01'0 0.0
2018-Apr-13 05:00N 39°06' E 009°01'0 0.0
2018-Apr-13 04:30N 39°06' E 009°01'0 0.0
2018-Apr-13 04:00N 39°06' E 009°01'0 0.0
2018-Apr-13 03:30N 39°06' E 009°01'0 0.0
2018-Apr-13 02:57N 39°06' E 009°01'0 0.0
2018-Apr-13 02:27N 39°06' E 009°01'0 0.0
2018-Apr-13 02:00N 39°06' E 009°01'0 0.0
2018-Apr-13 01:27N 39°06' E 009°01'0 0.0
2018-Apr-13 01:00N 39°06' E 009°01'0 0.0
2018-Apr-13 00:30N 39°06' E 009°01'0 0.0
2018-Apr-12 23:57N 39°06' E 009°01'0 0.0
2018-Apr-12 23:30N 39°06' E 009°01'0 0.0
2018-Apr-12 22:57N 39°06' E 009°01'0 0.0
2018-Apr-12 22:30N 39°06' E 009°01'0 0.0
2018-Apr-12 22:00N 39°06' E 009°01'0 0.0
2018-Apr-12 21:30N 39°06' E 009°01'0 0.0
2018-Apr-12 20:57N 39°06' E 009°01'0 0.0
2018-Apr-12 20:30N 39°06' E 009°01'0 0.0
2018-Apr-12 20:00N 39°06' E 009°01'0 0.0
2018-Apr-12 19:30N 39°06' E 009°01'0 0.0
2018-Apr-12 19:00N 39°06' E 009°01'0 0.0
2018-Apr-12 18:30N 39°06' E 009°01'0 0.0
2018-Apr-12 18:00N 39°06' E 009°01'0 0.0
2018-Apr-12 17:30N 39°06' E 009°01'0 0.0
2018-Apr-12 16:57N 39°06' E 009°01'0 0.0
2018-Apr-12 16:30N 39°06' E 009°01'0 0.0
2018-Apr-12 16:00N 39°06' E 009°01'0 0.0
2018-Apr-12 15:30N 39°06' E 009°01'0 0.0
2018-Apr-12 15:00N 39°06' E 009°01'0 0.0
2018-Apr-12 14:30N 39°06' E 009°01'0 0.0
2018-Apr-12 14:00N 39°06' E 009°01'0 0.1
2018-Apr-12 13:30N 39°06' E 009°01'2 4.3
2018-Apr-12 13:00N 39°07' E 009°04'0 0.1
2018-Apr-12 12:28N 39°07' E 009°04'0 0.0
2018-Apr-12 11:58N 39°07' E 009°04'0 0.0
2018-Apr-12 11:28N 39°07' E 009°04'0 0.2
2018-Apr-12 10:58N 39°07' E 009°04'0 0.0
2018-Apr-12 10:28N 39°07' E 009°03'0 0.0
2018-Apr-12 09:58N 39°07' E 009°03'0 0.0
2018-Apr-12 09:28N 39°07' E 009°03'0 0.0
2018-Apr-12 08:58N 39°07' E 009°04'0 0.0
2018-Apr-12 08:28N 39°07' E 009°04'0 0.0
2018-Apr-12 07:58N 39°07' E 009°04'0 0.0
2018-Apr-12 07:28N 39°07' E 009°04'0 0.1
2018-Apr-12 06:58N 39°07' E 009°04'0 0.0
2018-Apr-12 06:28N 39°07' E 009°04'0 0.0
2018-Apr-12 05:58N 39°07' E 009°04'0 0.1
2018-Apr-12 05:31N 39°07' E 009°04'0 0.1
2018-Apr-12 05:01N 39°07' E 009°04'0 0.0
2018-Apr-12 04:31N 39°07' E 009°04'0 0.0
2018-Apr-12 04:01N 39°07' E 009°04'0 0.0
2018-Apr-12 03:31N 39°07' E 009°04'0 0.0
2018-Apr-12 03:00N 39°07' E 009°04'0 0.0
2018-Apr-12 02:30N 39°07' E 009°04'0 0.0
2018-Apr-12 02:00N 39°07' E 009°04'0 0.0
2018-Apr-12 01:30N 39°07' E 009°04'0 0.0
2018-Apr-12 01:00N 39°07' E 009°04'0 0.0
2018-Apr-12 00:30N 39°07' E 009°04'0 0.0
2018-Apr-12 00:00N 39°07' E 009°04'0 0.0
2018-Apr-11 23:30N 39°07' E 009°04'0 0.0
2018-Apr-11 23:00N 39°07' E 009°04'0 0.0
2018-Apr-11 22:30N 39°07' E 009°04'0 0.0
2018-Apr-11 22:00N 39°07' E 009°04'0 0.0
2018-Apr-11 21:30N 39°07' E 009°04'0 0.0
2018-Apr-11 21:00N 39°07' E 009°04'0 0.1
2018-Apr-11 20:30N 39°07' E 009°04'0 0.0
2018-Apr-11 20:00N 39°07' E 009°04'0 0.0
2018-Apr-11 19:30N 39°07' E 009°04'0 0.0
2018-Apr-11 19:00N 39°07' E 009°04'0 0.0
2018-Apr-11 18:30N 39°07' E 009°04'0 0.0
2018-Apr-11 17:57N 39°07' E 009°04'0 0.2
2018-Apr-11 17:27N 39°07' E 009°04'0 0.0
2018-Apr-11 17:00N 39°07' E 009°04'0 0.0
2018-Apr-11 16:30N 39°07' E 009°04'0 0.2
2018-Apr-11 16:00N 39°07' E 009°03'0 0.0
2018-Apr-11 15:27N 39°07' E 009°03'0 0.0
2018-Apr-11 15:00N 39°07' E 009°03'0 0.0
2018-Apr-11 14:27N 39°07' E 009°03'0 0.0
2018-Apr-11 14:00N 39°07' E 009°03'0 0.1
2018-Apr-11 13:30N 39°07' E 009°04'0 0.1
2018-Apr-11 13:00N 39°07' E 009°03'0 0.0
2018-Apr-11 12:30N 39°07' E 009°03'0 0.0
2018-Apr-11 12:00N 39°07' E 009°03'0 0.0
2018-Apr-11 11:30N 39°07' E 009°03'0 0.0
2018-Apr-11 11:00N 39°07' E 009°03'0 0.0
2018-Apr-11 10:30N 39°07' E 009°03'0 0.0
2018-Apr-11 10:00N 39°07' E 009°03'0 0.0
2018-Apr-11 09:30N 39°07' E 009°03'0 0.0
2018-Apr-11 09:00N 39°07' E 009°03'0 0.0
2018-Apr-11 08:30N 39°07' E 009°03'0 0.0
2018-Apr-11 08:00N 39°07' E 009°03'0 0.0
2018-Apr-11 07:30N 39°07' E 009°03'0 0.0
2018-Apr-11 07:00N 39°07' E 009°03'0 0.0
2018-Apr-11 06:30N 39°07' E 009°03'0 0.0
2018-Apr-11 06:00N 39°07' E 009°03'0 0.0
2018-Apr-11 05:30N 39°07' E 009°03'0 0.0
2018-Apr-11 05:00N 39°07' E 009°03'0 0.0
2018-Apr-11 04:30N 39°07' E 009°03'0 0.0
2018-Apr-11 03:57N 39°07' E 009°03'0 0.1
2018-Apr-11 03:30N 39°07' E 009°03'0 0.0
2018-Apr-11 03:00N 39°07' E 009°03'0 0.0
2018-Apr-11 02:30N 39°07' E 009°03'0 0.0
2018-Apr-11 02:00N 39°07' E 009°03'0 0.0
2018-Apr-11 01:30N 39°07' E 009°03'0 0.0
2018-Apr-11 01:00N 39°07' E 009°03'0 0.0
2018-Apr-11 00:30N 39°07' E 009°03'0 0.0
2018-Apr-11 00:00N 39°07' E 009°03'0 0.0
2018-Apr-10 23:30N 39°07' E 009°03'0 0.0
2018-Apr-10 23:00N 39°07' E 009°03'0 0.0
2018-Apr-10 22:27N 39°07' E 009°03'0 0.0
2018-Apr-10 22:00N 39°07' E 009°03'0 0.0
2018-Apr-10 21:30N 39°07' E 009°03'0 0.0
2018-Apr-10 21:00N 39°07' E 009°03'0 0.0
2018-Apr-10 20:30N 39°07' E 009°03'0 0.0
2018-Apr-10 20:00N 39°07' E 009°03'0 0.0
2018-Apr-10 19:30N 39°07' E 009°03'0 0.0
2018-Apr-10 19:00N 39°07' E 009°03'0 0.0
2018-Apr-10 18:30N 39°07' E 009°03'0 0.0
2018-Apr-10 18:00N 39°07' E 009°03'0 0.0
2018-Apr-10 17:30N 39°07' E 009°03'0 0.0
2018-Apr-10 17:00N 39°07' E 009°03'0 0.0
2018-Apr-10 16:30N 39°07' E 009°03'0 0.2
2018-Apr-10 16:00N 39°07' E 009°04'0 0.0
2018-Apr-10 15:30N 39°07' E 009°04'0 0.0
2018-Apr-10 15:00N 39°07' E 009°04'0 0.0
2018-Apr-10 14:30N 39°07' E 009°04'0 0.0
2018-Apr-10 14:00N 39°07' E 009°04'0 0.0
2018-Apr-10 13:30N 39°07' E 009°04'0 0.0
2018-Apr-10 13:00N 39°07' E 009°04'0 0.0
2018-Apr-10 12:27N 39°07' E 009°04'0 0.0
2018-Apr-10 11:56N 39°07' E 009°04'0 0.0
2018-Apr-10 11:29N 39°07' E 009°04'0 0.1
2018-Apr-10 10:56N 39°07' E 009°04'0 0.0
2018-Apr-10 10:29N 39°07' E 009°04'0 0.0
2018-Apr-10 09:59N 39°07' E 009°04'0 0.0
2018-Apr-10 09:29N 39°07' E 009°04'0 0.0
2018-Apr-10 08:59N 39°07' E 009°04'0 0.1
2018-Apr-10 08:29N 39°07' E 009°04'0 0.1
2018-Apr-10 07:59N 39°07' E 009°04'0 0.0
2018-Apr-10 07:29N 39°07' E 009°04'0 0.0
2018-Apr-10 06:56N 39°07' E 009°04'0 0.1
2018-Apr-10 06:29N 39°07' E 009°04'0 0.1
2018-Apr-10 05:59N 39°07' E 009°04'0 0.0
2018-Apr-10 05:29N 39°07' E 009°04'0 0.0
2018-Apr-10 04:59N 39°07' E 009°04'0 0.1
2018-Apr-10 04:29N 39°07' E 009°04'0 0.1
2018-Apr-10 03:56N 39°07' E 009°04'0 0.0
2018-Apr-10 03:29N 39°07' E 009°04'0 0.0
2018-Apr-10 02:59N 39°07' E 009°04'0 0.1
2018-Apr-10 02:29N 39°07' E 009°04'0 0.1
2018-Apr-10 01:59N 39°07' E 009°04'0 0.0
2018-Apr-10 01:29N 39°07' E 009°04'0 0.1
2018-Apr-10 00:59N 39°07' E 009°04'0 0.0
2018-Apr-10 00:29N 39°07' E 009°04'0 0.1
2018-Apr-09 23:59N 39°07' E 009°04'0 0.0
2018-Apr-09 23:29N 39°07' E 009°04'0 0.0
2018-Apr-09 22:59N 39°07' E 009°04'0 0.0
2018-Apr-09 22:29N 39°07' E 009°04'0 0.2
2018-Apr-09 21:59N 39°07' E 009°04'0 0.0
2018-Apr-09 21:29N 39°07' E 009°04'0 0.1
2018-Apr-09 20:56N 39°07' E 009°04'0 0.1
2018-Apr-09 20:29N 39°07' E 009°04'0 0.0
2018-Apr-09 19:59N 39°07' E 009°04'0 0.1
2018-Apr-09 19:29N 39°07' E 009°04'0 0.0
2018-Apr-09 18:59N 39°07' E 009°04'0 0.1
2018-Apr-09 18:29N 39°07' E 009°04'0 0.0
2018-Apr-09 17:56N 39°07' E 009°04'0 0.1
2018-Apr-09 17:29N 39°07' E 009°04'0 0.0
2018-Apr-09 16:59N 39°07' E 009°04'0 0.0
2018-Apr-09 16:29N 39°07' E 009°04'0 0.0
2018-Apr-09 15:59N 39°07' E 009°04'0 0.0
2018-Apr-09 15:29N 39°07' E 009°04'0 0.0
2018-Apr-09 14:59N 39°07' E 009°04'0 0.0
2018-Apr-09 14:29N 39°07' E 009°04'0 0.0
2018-Apr-09 13:59N 39°07' E 009°04'0 0.0
2018-Apr-09 13:29N 39°07' E 009°04'0 0.0
2018-Apr-09 12:59N 39°07' E 009°04'0 0.0
2018-Apr-09 12:29N 39°07' E 009°04'0 0.1
2018-Apr-09 11:59N 39°07' E 009°04'0 0.0
2018-Apr-09 11:29N 39°07' E 009°04'0 0.0
2018-Apr-09 10:59N 39°07' E 009°04'0 0.0
2018-Apr-09 10:29N 39°07' E 009°04'0 0.0
2018-Apr-09 09:59N 39°07' E 009°04'0 0.0
2018-Apr-09 09:29N 39°07' E 009°04'0 0.0
2018-Apr-09 08:59N 39°07' E 009°04'0 0.0
2018-Apr-09 08:29N 39°07' E 009°04'0 0.0
2018-Apr-09 07:56N 39°07' E 009°04'0 0.0
2018-Apr-09 07:29N 39°07' E 009°04'0 0.0
2018-Apr-09 06:59N 39°07' E 009°04'0 0.0
2018-Apr-09 06:29N 39°07' E 009°04'0 0.0
2018-Apr-09 05:59N 39°07' E 009°04'0 0.1
2018-Apr-09 05:29N 39°07' E 009°04'0 0.1
2018-Apr-09 04:59N 39°07' E 009°04'0 0.0
2018-Apr-09 04:29N 39°07' E 009°04'0 0.0
2018-Apr-09 03:59N 39°07' E 009°04'0 0.0
2018-Apr-09 03:26N 39°07' E 009°04'0 0.0
2018-Apr-09 02:59N 39°07' E 009°04'0 0.0
2018-Apr-09 02:29N 39°07' E 009°04'0 0.0
2018-Apr-09 01:59N 39°07' E 009°04'0 0.0
2018-Apr-09 01:29N 39°07' E 009°04'0 0.0
2018-Apr-09 00:59N 39°07' E 009°04'0 0.0
2018-Apr-09 00:29N 39°07' E 009°04'0 0.0
2018-Apr-08 23:59N 39°07' E 009°04'0 0.0
2018-Apr-08 23:29N 39°07' E 009°04'0 0.0
2018-Apr-08 22:59N 39°07' E 009°04'0 0.0
2018-Apr-08 22:29N 39°07' E 009°04'0 0.0
2018-Apr-08 21:59N 39°07' E 009°04'0 0.0
2018-Apr-08 21:29N 39°07' E 009°04'0 0.0
2018-Apr-08 20:56N 39°07' E 009°04'0 0.1
2018-Apr-08 20:29N 39°07' E 009°04'0 0.1
2018-Apr-08 19:59N 39°07' E 009°03'0 0.2
2018-Apr-08 19:28N 39°07' E 009°03'0 0.1
2018-Apr-08 18:58N 39°07' E 009°03'0 0.2
2018-Apr-08 18:28N 39°07' E 009°03'0 0.0
2018-Apr-08 17:58N 39°07' E 009°03'0 0.0
2018-Apr-08 17:28N 39°07' E 009°03'0 0.0
2018-Apr-08 16:58N 39°07' E 009°03'0 0.0
2018-Apr-08 16:25N 39°07' E 009°03'0 0.0
2018-Apr-08 15:58N 39°07' E 009°03'0 0.0
2018-Apr-08 15:25N 39°07' E 009°03'0 0.0
2018-Apr-08 14:58N 39°07' E 009°03'0 0.0
2018-Apr-08 14:28N 39°07' E 009°03'0 0.0
2018-Apr-08 13:58N 39°07' E 009°03'0 0.0
2018-Apr-08 13:28N 39°07' E 009°03'0 0.0
2018-Apr-08 12:58N 39°07' E 009°03'0 0.0
2018-Apr-08 12:28N 39°07' E 009°03'0 0.0
2018-Apr-08 11:58N 39°07' E 009°03'0 0.0
2018-Apr-08 11:28N 39°07' E 009°03'0 0.0
2018-Apr-08 10:58N 39°07' E 009°03'0 0.0
2018-Apr-08 10:28N 39°07' E 009°03'0 0.0
2018-Apr-08 09:58N 39°07' E 009°03'0 0.0
2018-Apr-08 09:28N 39°07' E 009°03'0 0.0
2018-Apr-08 08:58N 39°07' E 009°03'0 0.0
2018-Apr-08 08:28N 39°07' E 009°03'0 0.0
2018-Apr-08 07:58N 39°07' E 009°03'0 0.0
2018-Apr-08 07:25N 39°07' E 009°03'0 0.0
2018-Apr-08 06:58N 39°07' E 009°03'0 0.0
2018-Apr-08 06:28N 39°07' E 009°03'0 0.0
2018-Apr-08 05:58N 39°07' E 009°03'0 0.0
2018-Apr-08 05:28N 39°07' E 009°03'0 0.0
2018-Apr-08 04:58N 39°07' E 009°03'0 0.0
2018-Apr-08 04:28N 39°07' E 009°03'0 0.0
2018-Apr-08 03:58N 39°07' E 009°03'0 0.0
2018-Apr-08 03:28N 39°07' E 009°03'0 0.0
2018-Apr-08 02:58N 39°07' E 009°03'0 0.0
2018-Apr-08 02:28N 39°07' E 009°03'0 0.0
2018-Apr-08 01:58N 39°07' E 009°03'0 0.0
2018-Apr-08 01:28N 39°07' E 009°03'0 0.0
2018-Apr-08 00:58N 39°07' E 009°03'0 0.0
2018-Apr-08 00:28N 39°07' E 009°03'0 0.0
2018-Apr-07 23:58N 39°07' E 009°03'0 0.0
2018-Apr-07 23:28N 39°07' E 009°03'0 0.0
2018-Apr-07 22:55N 39°07' E 009°03'0 0.0
2018-Apr-07 22:28N 39°07' E 009°03'0 0.0
2018-Apr-07 21:58N 39°07' E 009°03'0 0.0
2018-Apr-07 21:28N 39°07' E 009°03'0 0.0
2018-Apr-07 20:58N 39°07' E 009°03'0 0.0
2018-Apr-07 20:28N 39°07' E 009°03'0 0.0
2018-Apr-07 19:58N 39°07' E 009°03'0 0.0
2018-Apr-07 19:28N 39°07' E 009°03'0 0.0
2018-Apr-07 18:58N 39°07' E 009°03'0 0.0
2018-Apr-07 18:28N 39°07' E 009°03'0 0.0
2018-Apr-07 17:58N 39°07' E 009°03'0 0.0
2018-Apr-07 17:28N 39°07' E 009°03'0 0.0
2018-Apr-07 16:58N 39°07' E 009°03'0 0.0
2018-Apr-07 16:28N 39°07' E 009°03'0 0.0
2018-Apr-07 15:58N 39°07' E 009°03'0 0.0
2018-Apr-07 15:28N 39°07' E 009°03'0 0.0
2018-Apr-07 14:58N 39°07' E 009°03'0 0.0
2018-Apr-07 14:28N 39°07' E 009°03'0 0.0
2018-Apr-07 13:55N 39°07' E 009°03'0 0.0
2018-Apr-07 13:28N 39°07' E 009°03'0 0.0
2018-Apr-07 12:58N 39°07' E 009°03'0 0.0
2018-Apr-07 12:28N 39°07' E 009°03'0 0.0
2018-Apr-07 11:58N 39°07' E 009°03'0 0.0
2018-Apr-07 11:28N 39°07' E 009°03'0 0.0
2018-Apr-07 10:58N 39°07' E 009°03'0 0.0
2018-Apr-07 10:28N 39°07' E 009°03'0 0.0
2018-Apr-07 09:58N 39°07' E 009°03'0 0.0
2018-Apr-07 09:28N 39°07' E 009°03'0 0.0
2018-Apr-07 08:58N 39°07' E 009°03'0 0.0
2018-Apr-07 08:28N 39°07' E 009°03'0 0.0
2018-Apr-07 07:58N 39°07' E 009°03'0 0.0
2018-Apr-07 07:28N 39°07' E 009°03'0 0.0
2018-Apr-07 06:58N 39°07' E 009°03'0 0.0
2018-Apr-07 06:25N 39°07' E 009°03'0 0.0
2018-Apr-07 05:58N 39°07' E 009°03'0 0.0
2018-Apr-07 05:28N 39°07' E 009°03'0 0.0
2018-Apr-07 04:58N 39°07' E 009°03'0 0.0
2018-Apr-07 04:31N 39°07' E 009°03'0 0.0
2018-Apr-07 04:00N 39°07' E 009°03'0 0.1
2018-Apr-07 03:30N 39°07' E 009°04'0 0.1
2018-Apr-07 03:00N 39°07' E 009°03'0 0.0
2018-Apr-07 02:30N 39°07' E 009°03'0 0.0
2018-Apr-07 02:00N 39°07' E 009°03'0 0.0
2018-Apr-07 01:30N 39°07' E 009°03'0 0.0
2018-Apr-07 01:00N 39°07' E 009°03'0 0.0
2018-Apr-07 00:30N 39°07' E 009°03'0 0.0
2018-Apr-07 00:00N 39°07' E 009°03'0 0.0
2018-Apr-06 23:30N 39°07' E 009°03'0 0.0
2018-Apr-06 23:00N 39°07' E 009°03'0 0.0
2018-Apr-06 22:30N 39°07' E 009°03'0 0.0
2018-Apr-06 22:00N 39°07' E 009°03'0 0.0
2018-Apr-06 21:30N 39°07' E 009°03'0 0.0
2018-Apr-06 21:00N 39°07' E 009°03'0 0.0
2018-Apr-06 20:30N 39°07' E 009°03'0 0.0
2018-Apr-06 20:00N 39°07' E 009°03'0 0.0
2018-Apr-06 19:30N 39°07' E 009°03'0 0.0
2018-Apr-06 19:00N 39°07' E 009°03'0 0.0
2018-Apr-06 18:30N 39°07' E 009°03'0 0.0
2018-Apr-06 18:00N 39°07' E 009°03'0 0.0
2018-Apr-06 17:30N 39°07' E 009°03'0 0.0
2018-Apr-06 17:00N 39°07' E 009°03'0 0.0
2018-Apr-06 16:30N 39°07' E 009°03'0 0.0
2018-Apr-06 16:00N 39°07' E 009°03'0 0.0
2018-Apr-06 15:30N 39°07' E 009°03'0 0.0
2018-Apr-06 15:00N 39°07' E 009°03'0 0.0
2018-Apr-06 14:30N 39°07' E 009°03'0 0.0
2018-Apr-06 14:00N 39°07' E 009°04'0 0.0
2018-Apr-06 13:30N 39°07' E 009°04'0 0.0
2018-Apr-06 13:00N 39°07' E 009°04'0 0.0
2018-Apr-06 12:30N 39°07' E 009°04'0 0.0
2018-Apr-06 12:00N 39°07' E 009°04'0 0.0
2018-Apr-06 11:30N 39°07' E 009°04'0 0.0
2018-Apr-06 11:00N 39°07' E 009°04'0 0.0
2018-Apr-06 10:30N 39°07' E 009°04'0 0.0
2018-Apr-06 10:00N 39°07' E 009°04'0 0.1
2018-Apr-06 09:30N 39°07' E 009°04'0 0.1
2018-Apr-06 08:57N 39°07' E 009°04'0 0.0
2018-Apr-06 08:30N 39°07' E 009°04'0 0.0
2018-Apr-06 07:57N 39°07' E 009°04'0 0.0
2018-Apr-06 07:30N 39°07' E 009°04'0 0.0
2018-Apr-06 07:00N 39°07' E 009°04'0 0.0
2018-Apr-06 06:30N 39°07' E 009°04'0 0.0
2018-Apr-06 06:00N 39°07' E 009°04'0 0.0
2018-Apr-06 05:30N 39°07' E 009°04'0 0.0
2018-Apr-06 05:00N 39°07' E 009°04'0 0.0
2018-Apr-06 04:30N 39°07' E 009°04'0 0.2
2018-Apr-06 04:00N 39°07' E 009°04'3 5.9
2018-Apr-06 03:29N 39°05' E 009°07'4 8.0
2018-Apr-06 02:59N 39°03' E 009°11'4 7.9
2018-Apr-06 02:28N 39°01' E 009°16'4 7.9
2018-Apr-06 02:00N 38°59' E 009°20'4 8.6
2018-Apr-06 01:29N 38°57' E 009°24'  
Track history (hours):
 
Tides and Currents Weather Stations Pressure Air Temp Water Temp Dewpoint Dewpoint Depression Visibility Wind Speed Wind Dir Waves Ship Positions

B Gas Crusader

Last reported at 2018-Apr-15 04:13 UTC. Time now 2018-Apr-19 19:23 UTC.
Position N 40°58' E 001°38'.

Length 74 m; draft 4.5 m.

Type: Ship (hazmat cat C). MMSI: 256400000.

Date/timePositionNaut miles runAvg speedWind from/ knotsBaromVisibWave heightAir tempDewpointWater temp
2018-Apr-15 04:13N 40°58' E 001°38'310.6
2018-Apr-15 03:54N 40°57' E 001°42'348 9.9
2018-Apr-13 16:48N 38°47' E 008°42'410.7
2018-Apr-13 16:24N 38°47' E 008°48'710.3
2018-Apr-13 15:44N 38°50' E 008°56'310.3
2018-Apr-13 15:30N 38°51' E 008°58'510.2
2018-Apr-13 14:59N 38°55' E 009°02'510.2
2018-Apr-13 14:30N 38°59' E 009°06'510.1
2018-Apr-13 14:00N 39°04' E 009°07'4 8.0
2018-Apr-13 13:30N 39°06' E 009°02'0 0.2
2018-Apr-13 13:00N 39°06' E 009°02'0 0.0
2018-Apr-13 12:30N 39°06' E 009°02'0 0.0
2018-Apr-13 12:00N 39°06' E 009°02'0 0.0
2018-Apr-13 11:30N 39°06' E 009°02'0 0.0
2018-Apr-13 10:57N 39°06' E 009°02'0 0.0
2018-Apr-13 10:27N 39°06' E 009°02'0 0.0
2018-Apr-13 09:57N 39°06' E 009°02'0 0.0
2018-Apr-13 09:27N 39°06' E 009°02'0 0.0
2018-Apr-13 09:00N 39°06' E 009°02'0 0.1
2018-Apr-13 08:28N 39°06' E 009°02'1 1.1
2018-Apr-13 07:57N 39°06' E 009°01'0 0.0
2018-Apr-13 07:27N 39°06' E 009°01'0 0.0
2018-Apr-13 06:57N 39°06' E 009°01'0 0.0
2018-Apr-13 06:27N 39°06' E 009°01'0 0.0
2018-Apr-13 05:57N 39°06' E 009°01'0 0.0
2018-Apr-13 05:27N 39°06' E 009°01'0 0.0
2018-Apr-13 05:00N 39°06' E 009°01'0 0.0
2018-Apr-13 04:30N 39°06' E 009°01'0 0.0
2018-Apr-13 04:00N 39°06' E 009°01'0 0.0
2018-Apr-13 03:30N 39°06' E 009°01'0 0.0
2018-Apr-13 02:57N 39°06' E 009°01'0 0.0
2018-Apr-13 02:27N 39°06' E 009°01'0 0.0
2018-Apr-13 02:00N 39°06' E 009°01'0 0.0
2018-Apr-13 01:27N 39°06' E 009°01'0 0.0
2018-Apr-13 01:00N 39°06' E 009°01'0 0.0
2018-Apr-13 00:30N 39°06' E 009°01'0 0.0
2018-Apr-12 23:57N 39°06' E 009°01'0 0.0
2018-Apr-12 23:30N 39°06' E 009°01'0 0.0
2018-Apr-12 22:57N 39°06' E 009°01'0 0.0
2018-Apr-12 22:30N 39°06' E 009°01'0 0.0
2018-Apr-12 22:00N 39°06' E 009°01'0 0.0
2018-Apr-12 21:30N 39°06' E 009°01'0 0.0
2018-Apr-12 20:57N 39°06' E 009°01'0 0.0
2018-Apr-12 20:30N 39°06' E 009°01'0 0.0
2018-Apr-12 20:00N 39°06' E 009°01'0 0.0
2018-Apr-12 19:30N 39°06' E 009°01'0 0.0
2018-Apr-12 19:00N 39°06' E 009°01'0 0.0
2018-Apr-12 18:30N 39°06' E 009°01'0 0.0
2018-Apr-12 18:00N 39°06' E 009°01'0 0.0
2018-Apr-12 17:30N 39°06' E 009°01'0 0.0
2018-Apr-12 16:57N 39°06' E 009°01'0 0.0
2018-Apr-12 16:30N 39°06' E 009°01'0 0.0
2018-Apr-12 16:00N 39°06' E 009°01'0 0.0
2018-Apr-12 15:30N 39°06' E 009°01'0 0.0
2018-Apr-12 15:00N 39°06' E 009°01'0 0.0
2018-Apr-12 14:30N 39°06' E 009°01'0 0.0
2018-Apr-12 14:00N 39°06' E 009°01'0 0.1
2018-Apr-12 13:30N 39°06' E 009°01'2 4.3
2018-Apr-12 13:00N 39°07' E 009°04'0 0.1
2018-Apr-12 12:28N 39°07' E 009°04'0 0.0
2018-Apr-12 11:58N 39°07' E 009°04'0 0.0
2018-Apr-12 11:28N 39°07' E 009°04'0 0.2
2018-Apr-12 10:58N 39°07' E 009°04'0 0.0
2018-Apr-12 10:28N 39°07' E 009°03'0 0.0
2018-Apr-12 09:58N 39°07' E 009°03'0 0.0
2018-Apr-12 09:28N 39°07' E 009°03'0 0.0
2018-Apr-12 08:58N 39°07' E 009°04'0 0.0
2018-Apr-12 08:28N 39°07' E 009°04'0 0.0
2018-Apr-12 07:58N 39°07' E 009°04'0 0.0
2018-Apr-12 07:28N 39°07' E 009°04'0 0.1
2018-Apr-12 06:58N 39°07' E 009°04'0 0.0
2018-Apr-12 06:28N 39°07' E 009°04'0 0.0
2018-Apr-12 05:58N 39°07' E 009°04'0 0.1
2018-Apr-12 05:31N 39°07' E 009°04'0 0.1
2018-Apr-12 05:01N 39°07' E 009°04'0 0.0
2018-Apr-12 04:31N 39°07' E 009°04'0 0.0
2018-Apr-12 04:01N 39°07' E 009°04'0 0.0
2018-Apr-12 03:31N 39°07' E 009°04'0 0.0
2018-Apr-12 03:00N 39°07' E 009°04'0 0.0
2018-Apr-12 02:30N 39°07' E 009°04'0 0.0
2018-Apr-12 02:00N 39°07' E 009°04'0 0.0
2018-Apr-12 01:30N 39°07' E 009°04'0 0.0
2018-Apr-12 01:00N 39°07' E 009°04'0 0.0
2018-Apr-12 00:30N 39°07' E 009°04'0 0.0
2018-Apr-12 00:00N 39°07' E 009°04'0 0.0
2018-Apr-11 23:30N 39°07' E 009°04'0 0.0
2018-Apr-11 23:00N 39°07' E 009°04'0 0.0
2018-Apr-11 22:30N 39°07' E 009°04'0 0.0
2018-Apr-11 22:00N 39°07' E 009°04'0 0.0
2018-Apr-11 21:30N 39°07' E 009°04'0 0.0
2018-Apr-11 21:00N 39°07' E 009°04'0 0.1
2018-Apr-11 20:30N 39°07' E 009°04'0 0.0
2018-Apr-11 20:00N 39°07' E 009°04'0 0.0
2018-Apr-11 19:30N 39°07' E 009°04'0 0.0
2018-Apr-11 19:00N 39°07' E 009°04'0 0.0
2018-Apr-11 18:30N 39°07' E 009°04'0 0.0
2018-Apr-11 17:57N 39°07' E 009°04'0 0.2
2018-Apr-11 17:27N 39°07' E 009°04'0 0.0
2018-Apr-11 17:00N 39°07' E 009°04'0 0.0
2018-Apr-11 16:30N 39°07' E 009°04'0 0.2
2018-Apr-11 16:00N 39°07' E 009°03'0 0.0
2018-Apr-11 15:27N 39°07' E 009°03'0 0.0
2018-Apr-11 15:00N 39°07' E 009°03'0 0.0
2018-Apr-11 14:27N 39°07' E 009°03'0 0.0
2018-Apr-11 14:00N 39°07' E 009°03'0 0.1
2018-Apr-11 13:30N 39°07' E 009°04'0 0.1
2018-Apr-11 13:00N 39°07' E 009°03'0 0.0
2018-Apr-11 12:30N 39°07' E 009°03'0 0.0
2018-Apr-11 12:00N 39°07' E 009°03'0 0.0
2018-Apr-11 11:30N 39°07' E 009°03'0 0.0
2018-Apr-11 11:00N 39°07' E 009°03'0 0.0
2018-Apr-11 10:30N 39°07' E 009°03'0 0.0
2018-Apr-11 10:00N 39°07' E 009°03'0 0.0
2018-Apr-11 09:30N 39°07' E 009°03'0 0.0
2018-Apr-11 09:00N 39°07' E 009°03'0 0.0
2018-Apr-11 08:30N 39°07' E 009°03'0 0.0
2018-Apr-11 08:00N 39°07' E 009°03'0 0.0
2018-Apr-11 07:30N 39°07' E 009°03'0 0.0
2018-Apr-11 07:00N 39°07' E 009°03'0 0.0
2018-Apr-11 06:30N 39°07' E 009°03'0 0.0
2018-Apr-11 06:00N 39°07' E 009°03'0 0.0
2018-Apr-11 05:30N 39°07' E 009°03'0 0.0
2018-Apr-11 05:00N 39°07' E 009°03'0 0.0
2018-Apr-11 04:30N 39°07' E 009°03'0 0.0
2018-Apr-11 03:57N 39°07' E 009°03'0 0.1
2018-Apr-11 03:30N 39°07' E 009°03'0 0.0
2018-Apr-11 03:00N 39°07' E 009°03'0 0.0
2018-Apr-11 02:30N 39°07' E 009°03'0 0.0
2018-Apr-11 02:00N 39°07' E 009°03'0 0.0
2018-Apr-11 01:30N 39°07' E 009°03'0 0.0
2018-Apr-11 01:00N 39°07' E 009°03'0 0.0
2018-Apr-11 00:30N 39°07' E 009°03'0 0.0
2018-Apr-11 00:00N 39°07' E 009°03'0 0.0
2018-Apr-10 23:30N 39°07' E 009°03'0 0.0
2018-Apr-10 23:00N 39°07' E 009°03'0 0.0
2018-Apr-10 22:27N 39°07' E 009°03'0 0.0
2018-Apr-10 22:00N 39°07' E 009°03'0 0.0
2018-Apr-10 21:30N 39°07' E 009°03'0 0.0
2018-Apr-10 21:00N 39°07' E 009°03'0 0.0
2018-Apr-10 20:30N 39°07' E 009°03'0 0.0
2018-Apr-10 20:00N 39°07' E 009°03'0 0.0
2018-Apr-10 19:30N 39°07' E 009°03'0 0.0
2018-Apr-10 19:00N 39°07' E 009°03'0 0.0
2018-Apr-10 18:30N 39°07' E 009°03'0 0.0
2018-Apr-10 18:00N 39°07' E 009°03'0 0.0
2018-Apr-10 17:30N 39°07' E 009°03'0 0.0
2018-Apr-10 17:00N 39°07' E 009°03'0 0.0
2018-Apr-10 16:30N 39°07' E 009°03'0 0.2
2018-Apr-10 16:00N 39°07' E 009°04'0 0.0
2018-Apr-10 15:30N 39°07' E 009°04'0 0.0
2018-Apr-10 15:00N 39°07' E 009°04'0 0.0
2018-Apr-10 14:30N 39°07' E 009°04'0 0.0
2018-Apr-10 14:00N 39°07' E 009°04'0 0.0
2018-Apr-10 13:30N 39°07' E 009°04'0 0.0
2018-Apr-10 13:00N 39°07' E 009°04'0 0.0
2018-Apr-10 12:27N 39°07' E 009°04'0 0.0
2018-Apr-10 11:56N 39°07' E 009°04'0 0.0
2018-Apr-10 11:29N 39°07' E 009°04'0 0.1
2018-Apr-10 10:56N 39°07' E 009°04'0 0.0
2018-Apr-10 10:29N 39°07' E 009°04'0 0.0
2018-Apr-10 09:59N 39°07' E 009°04'0 0.0
2018-Apr-10 09:29N 39°07' E 009°04'0 0.0
2018-Apr-10 08:59N 39°07' E 009°04'0 0.1
2018-Apr-10 08:29N 39°07' E 009°04'0 0.1
2018-Apr-10 07:59N 39°07' E 009°04'0 0.0
2018-Apr-10 07:29N 39°07' E 009°04'0 0.0
2018-Apr-10 06:56N 39°07' E 009°04'0 0.1
2018-Apr-10 06:29N 39°07' E 009°04'0 0.1
2018-Apr-10 05:59N 39°07' E 009°04'0 0.0
2018-Apr-10 05:29N 39°07' E 009°04'0 0.0
2018-Apr-10 04:59N 39°07' E 009°04'0 0.1
2018-Apr-10 04:29N 39°07' E 009°04'0 0.1
2018-Apr-10 03:56N 39°07' E 009°04'0 0.0
2018-Apr-10 03:29N 39°07' E 009°04'0 0.0
2018-Apr-10 02:59N 39°07' E 009°04'0 0.1
2018-Apr-10 02:29N 39°07' E 009°04'0 0.1
2018-Apr-10 01:59N 39°07' E 009°04'0 0.0
2018-Apr-10 01:29N 39°07' E 009°04'0 0.1
2018-Apr-10 00:59N 39°07' E 009°04'0 0.0
2018-Apr-10 00:29N 39°07' E 009°04'0 0.1
2018-Apr-09 23:59N 39°07' E 009°04'0 0.0
2018-Apr-09 23:29N 39°07' E 009°04'0 0.0
2018-Apr-09 22:59N 39°07' E 009°04'0 0.0
2018-Apr-09 22:29N 39°07' E 009°04'0 0.2
2018-Apr-09 21:59N 39°07' E 009°04'0 0.0
2018-Apr-09 21:29N 39°07' E 009°04'0 0.1
2018-Apr-09 20:56N 39°07' E 009°04'0 0.1
2018-Apr-09 20:29N 39°07' E 009°04'0 0.0
2018-Apr-09 19:59N 39°07' E 009°04'0 0.1
2018-Apr-09 19:29N 39°07' E 009°04'0 0.0
2018-Apr-09 18:59N 39°07' E 009°04'0 0.1
2018-Apr-09 18:29N 39°07' E 009°04'0 0.0
2018-Apr-09 17:56N 39°07' E 009°04'0 0.1
2018-Apr-09 17:29N 39°07' E 009°04'0 0.0
2018-Apr-09 16:59N 39°07' E 009°04'0 0.0
2018-Apr-09 16:29N 39°07' E 009°04'0 0.0
2018-Apr-09 15:59N 39°07' E 009°04'0 0.0
2018-Apr-09 15:29N 39°07' E 009°04'0 0.0
2018-Apr-09 14:59N 39°07' E 009°04'0 0.0
2018-Apr-09 14:29N 39°07' E 009°04'0 0.0
2018-Apr-09 13:59N 39°07' E 009°04'0 0.0
2018-Apr-09 13:29N 39°07' E 009°04'0 0.0
2018-Apr-09 12:59N 39°07' E 009°04'0 0.0
2018-Apr-09 12:29N 39°07' E 009°04'0 0.1
2018-Apr-09 11:59N 39°07' E 009°04'0 0.0
2018-Apr-09 11:29N 39°07' E 009°04'0 0.0
2018-Apr-09 10:59N 39°07' E 009°04'0 0.0
2018-Apr-09 10:29N 39°07' E 009°04'0 0.0
2018-Apr-09 09:59N 39°07' E 009°04'0 0.0
2018-Apr-09 09:29N 39°07' E 009°04'0 0.0
2018-Apr-09 08:59N 39°07' E 009°04'0 0.0
2018-Apr-09 08:29N 39°07' E 009°04'0 0.0
2018-Apr-09 07:56N 39°07' E 009°04'0 0.0
2018-Apr-09 07:29N 39°07' E 009°04'0 0.0
2018-Apr-09 06:59N 39°07' E 009°04'0 0.0
2018-Apr-09 06:29N 39°07' E 009°04'0 0.0
2018-Apr-09 05:59N 39°07' E 009°04'0 0.1
2018-Apr-09 05:29N 39°07' E 009°04'0 0.1
2018-Apr-09 04:59N 39°07' E 009°04'0 0.0
2018-Apr-09 04:29N 39°07' E 009°04'0 0.0
2018-Apr-09 03:59N 39°07' E 009°04'0 0.0
2018-Apr-09 03:26N 39°07' E 009°04'0 0.0
2018-Apr-09 02:59N 39°07' E 009°04'0 0.0
2018-Apr-09 02:29N 39°07' E 009°04'0 0.0
2018-Apr-09 01:59N 39°07' E 009°04'0 0.0
2018-Apr-09 01:29N 39°07' E 009°04'0 0.0
2018-Apr-09 00:59N 39°07' E 009°04'0 0.0
2018-Apr-09 00:29N 39°07' E 009°04'0 0.0
2018-Apr-08 23:59N 39°07' E 009°04'0 0.0
2018-Apr-08 23:29N 39°07' E 009°04'0 0.0
2018-Apr-08 22:59N 39°07' E 009°04'0 0.0
2018-Apr-08 22:29N 39°07' E 009°04'0 0.0
2018-Apr-08 21:59N 39°07' E 009°04'0 0.0
2018-Apr-08 21:29N 39°07' E 009°04'0 0.0
2018-Apr-08 20:56N 39°07' E 009°04'0 0.1
2018-Apr-08 20:29N 39°07' E 009°04'0 0.1
2018-Apr-08 19:59N 39°07' E 009°03'0 0.2
2018-Apr-08 19:28N 39°07' E 009°03'0 0.1
2018-Apr-08 18:58N 39°07' E 009°03'0 0.2
2018-Apr-08 18:28N 39°07' E 009°03'0 0.0
2018-Apr-08 17:58N 39°07' E 009°03'0 0.0
2018-Apr-08 17:28N 39°07' E 009°03'0 0.0
2018-Apr-08 16:58N 39°07' E 009°03'0 0.0
2018-Apr-08 16:25N 39°07' E 009°03'0 0.0
2018-Apr-08 15:58N 39°07' E 009°03'0 0.0
2018-Apr-08 15:25N 39°07' E 009°03'0 0.0
2018-Apr-08 14:58N 39°07' E 009°03'0 0.0
2018-Apr-08 14:28N 39°07' E 009°03'0 0.0
2018-Apr-08 13:58N 39°07' E 009°03'0 0.0
2018-Apr-08 13:28N 39°07' E 009°03'0 0.0
2018-Apr-08 12:58N 39°07' E 009°03'0 0.0
2018-Apr-08 12:28N 39°07' E 009°03'0 0.0
2018-Apr-08 11:58N 39°07' E 009°03'0 0.0
2018-Apr-08 11:28N 39°07' E 009°03'0 0.0
2018-Apr-08 10:58N 39°07' E 009°03'0 0.0
2018-Apr-08 10:28N 39°07' E 009°03'0 0.0
2018-Apr-08 09:58N 39°07' E 009°03'0 0.0
2018-Apr-08 09:28N 39°07' E 009°03'0 0.0
2018-Apr-08 08:58N 39°07' E 009°03'0 0.0
2018-Apr-08 08:28N 39°07' E 009°03'0 0.0
2018-Apr-08 07:58N 39°07' E 009°03'0 0.0
2018-Apr-08 07:25N 39°07' E 009°03'0 0.0
2018-Apr-08 06:58N 39°07' E 009°03'0 0.0
2018-Apr-08 06:28N 39°07' E 009°03'0 0.0
2018-Apr-08 05:58N 39°07' E 009°03'0 0.0
2018-Apr-08 05:28N 39°07' E 009°03'0 0.0
2018-Apr-08 04:58N 39°07' E 009°03'0 0.0
2018-Apr-08 04:28N 39°07' E 009°03'0 0.0
2018-Apr-08 03:58N 39°07' E 009°03'0 0.0
2018-Apr-08 03:28N 39°07' E 009°03'0 0.0
2018-Apr-08 02:58N 39°07' E 009°03'0 0.0
2018-Apr-08 02:28N 39°07' E 009°03'0 0.0
2018-Apr-08 01:58N 39°07' E 009°03'0 0.0
2018-Apr-08 01:28N 39°07' E 009°03'0 0.0
2018-Apr-08 00:58N 39°07' E 009°03'0 0.0
2018-Apr-08 00:28N 39°07' E 009°03'0 0.0
2018-Apr-07 23:58N 39°07' E 009°03'0 0.0
2018-Apr-07 23:28N 39°07' E 009°03'0 0.0
2018-Apr-07 22:55N 39°07' E 009°03'0 0.0
2018-Apr-07 22:28N 39°07' E 009°03'0 0.0
2018-Apr-07 21:58N 39°07' E 009°03'0 0.0
2018-Apr-07 21:28N 39°07' E 009°03'0 0.0
2018-Apr-07 20:58N 39°07' E 009°03'0 0.0
2018-Apr-07 20:28N 39°07' E 009°03'0 0.0
2018-Apr-07 19:58N 39°07' E 009°03'0 0.0
2018-Apr-07 19:28N 39°07' E 009°03'0 0.0
2018-Apr-07 18:58N 39°07' E 009°03'0 0.0
2018-Apr-07 18:28N 39°07' E 009°03'0 0.0
2018-Apr-07 17:58N 39°07' E 009°03'0 0.0
2018-Apr-07 17:28N 39°07' E 009°03'0 0.0
2018-Apr-07 16:58N 39°07' E 009°03'0 0.0
2018-Apr-07 16:28N 39°07' E 009°03'0 0.0
2018-Apr-07 15:58N 39°07' E 009°03'0 0.0
2018-Apr-07 15:28N 39°07' E 009°03'0 0.0
2018-Apr-07 14:58N 39°07' E 009°03'0 0.0
2018-Apr-07 14:28N 39°07' E 009°03'0 0.0
2018-Apr-07 13:55N 39°07' E 009°03'0 0.0
2018-Apr-07 13:28N 39°07' E 009°03'0 0.0
2018-Apr-07 12:58N 39°07' E 009°03'0 0.0
2018-Apr-07 12:28N 39°07' E 009°03'0 0.0
2018-Apr-07 11:58N 39°07' E 009°03'0 0.0
2018-Apr-07 11:28N 39°07' E 009°03'0 0.0
2018-Apr-07 10:58N 39°07' E 009°03'0 0.0
2018-Apr-07 10:28N 39°07' E 009°03'0 0.0
2018-Apr-07 09:58N 39°07' E 009°03'0 0.0
2018-Apr-07 09:28N 39°07' E 009°03'0 0.0
2018-Apr-07 08:58N 39°07' E 009°03'0 0.0
2018-Apr-07 08:28N 39°07' E 009°03'0 0.0
2018-Apr-07 07:58N 39°07' E 009°03'0 0.0
2018-Apr-07 07:28N 39°07' E 009°03'0 0.0
2018-Apr-07 06:58N 39°07' E 009°03'0 0.0
2018-Apr-07 06:25N 39°07' E 009°03'0 0.0
2018-Apr-07 05:58N 39°07' E 009°03'0 0.0
2018-Apr-07 05:28N 39°07' E 009°03'0 0.0
2018-Apr-07 04:58N 39°07' E 009°03'0 0.0
2018-Apr-07 04:31N 39°07' E 009°03'0 0.0
2018-Apr-07 04:00N 39°07' E 009°03'0 0.1
2018-Apr-07 03:30N 39°07' E 009°04'0 0.1
2018-Apr-07 03:00N 39°07' E 009°03'0 0.0
2018-Apr-07 02:30N 39°07' E 009°03'0 0.0
2018-Apr-07 02:00N 39°07' E 009°03'0 0.0
2018-Apr-07 01:30N 39°07' E 009°03'0 0.0
2018-Apr-07 01:00N 39°07' E 009°03'0 0.0
2018-Apr-07 00:30N 39°07' E 009°03'0 0.0
2018-Apr-07 00:00N 39°07' E 009°03'0 0.0
2018-Apr-06 23:30N 39°07' E 009°03'0 0.0
2018-Apr-06 23:00N 39°07' E 009°03'0 0.0
2018-Apr-06 22:30N 39°07' E 009°03'0 0.0
2018-Apr-06 22:00N 39°07' E 009°03'0 0.0
2018-Apr-06 21:30N 39°07' E 009°03'0 0.0
2018-Apr-06 21:00N 39°07' E 009°03'0 0.0
2018-Apr-06 20:30N 39°07' E 009°03'0 0.0
2018-Apr-06 20:00N 39°07' E 009°03'0 0.0
2018-Apr-06 19:30N 39°07' E 009°03'0 0.0
2018-Apr-06 19:00N 39°07' E 009°03'0 0.0
2018-Apr-06 18:30N 39°07' E 009°03'0 0.0
2018-Apr-06 18:00N 39°07' E 009°03'0 0.0
2018-Apr-06 17:30N 39°07' E 009°03'0 0.0
2018-Apr-06 17:00N 39°07' E 009°03'0 0.0
2018-Apr-06 16:30N 39°07' E 009°03'0 0.0
2018-Apr-06 16:00N 39°07' E 009°03'0 0.0
2018-Apr-06 15:30N 39°07' E 009°03'0 0.0
2018-Apr-06 15:00N 39°07' E 009°03'0 0.0
2018-Apr-06 14:30N 39°07' E 009°03'0 0.0
2018-Apr-06 14:00N 39°07' E 009°04'0 0.0
2018-Apr-06 13:30N 39°07' E 009°04'0 0.0
2018-Apr-06 13:00N 39°07' E 009°04'0 0.0
2018-Apr-06 12:30N 39°07' E 009°04'0 0.0
2018-Apr-06 12:00N 39°07' E 009°04'0 0.0
2018-Apr-06 11:30N 39°07' E 009°04'0 0.0
2018-Apr-06 11:00N 39°07' E 009°04'0 0.0
2018-Apr-06 10:30N 39°07' E 009°04'0 0.0
2018-Apr-06 10:00N 39°07' E 009°04'0 0.1
2018-Apr-06 09:30N 39°07' E 009°04'0 0.1
2018-Apr-06 08:57N 39°07' E 009°04'0 0.0
2018-Apr-06 08:30N 39°07' E 009°04'0 0.0
2018-Apr-06 07:57N 39°07' E 009°04'0 0.0
2018-Apr-06 07:30N 39°07' E 009°04'0 0.0
2018-Apr-06 07:00N 39°07' E 009°04'0 0.0
2018-Apr-06 06:30N 39°07' E 009°04'0 0.0
2018-Apr-06 06:00N 39°07' E 009°04'0 0.0
2018-Apr-06 05:30N 39°07' E 009°04'0 0.0
2018-Apr-06 05:00N 39°07' E 009°04'0 0.0
2018-Apr-06 04:30N 39°07' E 009°04'0 0.2
2018-Apr-06 04:00N 39°07' E 009°04'3 5.9
2018-Apr-06 03:29N 39°05' E 009°07'4 8.0
2018-Apr-06 02:59N 39°03' E 009°11'4 7.9
2018-Apr-06 02:28N 39°01' E 009°16'4 7.9
2018-Apr-06 02:00N 38°59' E 009°20'4 8.6
2018-Apr-06 01:29N 38°57' E 009°24'  

Dump ship's entire track history